Time;durP1;ratioP1;P1;durP2;ratioP2;P2;SDS_P1;SDS_P2;PMS_P1;PMS_P2;Temp;Humidity;BMP_temperature;BMP_pressure;BME280_temperature;BME280_humidity;BME280_pressure;Samples;Min_cycle;Max_cycle;Signal;HPM_P1;HPM_P2
2022/05/03 00:00:36;;;;;;;4.78;3.00;;;;;;;;;;2097252;28;20131;-49
2022/05/03 00:01:39;;;;;;;7.22;3.22;;;;;;;;;;2097158;28;20127;-46
2022/05/03 00:02:44;;;;;;;4.47;2.70;;;;;;;;;;2097272;28;20414;-46
2022/05/03 00:03:50;;;;;;;6.28;3.00;;;;;;;;;;2096959;28;20048;-47
2022/05/03 00:04:55;;;;;;;4.90;3.08;;;;;;;;;;2097207;28;20066;-46
2022/05/03 00:06:00;;;;;;;5.15;2.92;;;;;;;;;;2097275;28;20037;-46
2022/05/03 00:07:04;;;;;;;5.20;3.05;;;;;;;;;;2091083;28;20127;-47
2022/05/03 00:08:09;;;;;;;5.68;3.17;;;;;;;;;;2088951;28;20045;-46
2022/05/03 00:09:12;;;;;;;6.40;2.55;;;;;;;;;;2088799;28;20498;-47
2022/05/03 00:10:15;;;;;;;7.25;2.95;;;;;;;;;;2089146;28;20294;-47
2022/05/03 00:11:22;;;;;;;4.53;3.03;;;;;;;;;;2089038;28;20071;-47
2022/05/03 00:12:27;;;;;;;3.95;2.60;;;;;;;;;;2089095;28;20127;-48
2022/05/03 00:13:29;;;;;;;5.63;2.72;;;;;;;;;;2088966;28;20051;-46
2022/05/03 00:14:30;;;;;;;;;;;;;;;;;;2089469;28;20131;-47
2022/05/03 00:15:32;;;;;;;5.63;3.20;;;;;;;;;;2089103;28;20365;-48
2022/05/03 00:16:33;;;;;;;5.03;2.72;;;;;;;;;;2089020;28;20278;-47
2022/05/03 00:17:34;;;;;;;3.60;2.53;;;;;;;;;;2088881;28;20040;-47
2022/05/03 00:18:35;;;;;;;4.85;2.80;;;;;;;;;;2090878;28;20760;-47
2022/05/03 00:19:37;;;;;;;4.47;2.90;;;;;;;;;;2097139;28;20189;-47
2022/05/03 00:20:39;;;;;;;4.07;2.70;;;;;;;;;;2097170;28;20587;-46
2022/05/03 00:21:40;;;;;;;4.25;2.75;;;;;;;;;;2097219;28;20129;-48
2022/05/03 00:22:42;;;;;;;4.88;2.80;;;;;;;;;;2097292;28;20044;-58
2022/05/03 00:23:43;;;;;;;6.28;3.20;;;;;;;;;;2097168;28;20127;-58
2022/05/03 00:24:45;;;;;;;4.32;3.00;;;;;;;;;;2097298;28;20109;-59
2022/05/03 00:25:45;;;;;;;5.15;2.95;;;;;;;;;;2097154;28;20052;-58
2022/05/03 00:26:47;;;;;;;4.03;2.73;;;;;;;;;;2097503;28;20045;-47
2022/05/03 00:27:49;;;;;;;5.07;2.97;;;;;;;;;;2097233;28;20123;-47
2022/05/03 00:28:52;;;;;;;6.60;3.05;;;;;;;;;;2096869;28;20131;-46
2022/05/03 00:29:53;;;;;;;4.82;2.67;;;;;;;;;;2097103;28;20059;-47
2022/05/03 00:30:55;;;;;;;5.53;3.05;;;;;;;;;;2097092;28;20170;-47
2022/05/03 00:31:56;;;;;;;5.53;2.40;;;;;;;;;;2097216;28;20056;-46
2022/05/03 00:32:58;;;;;;;4.15;2.60;;;;;;;;;;2097121;28;20048;-47
2022/05/03 00:33:59;;;;;;;4.35;2.80;;;;;;;;;;2096995;28;20135;-47
2022/05/03 00:35:01;;;;;;;4.22;2.75;;;;;;;;;;2097086;28;20124;-47
2022/05/03 00:36:02;;;;;;;5.30;3.03;;;;;;;;;;2097106;28;20454;-46
2022/05/03 00:37:03;;;;;;;6.65;3.20;;;;;;;;;;2097148;28;20072;-49
2022/05/03 00:38:04;;;;;;;3.75;2.78;;;;;;;;;;2097134;28;20162;-47
2022/05/03 00:39:05;;;;;;;3.95;3.00;;;;;;;;;;2097247;28;20428;-50
2022/05/03 00:40:09;;;;;;;4.15;2.80;;;;;;;;;;2097038;28;20123;-46
2022/05/03 00:41:14;;;;;;;5.18;2.53;;;;;;;;;;2096435;28;20124;-47
2022/05/03 00:42:18;;;;;;;4.88;2.75;;;;;;;;;;2096992;28;20526;-47
2022/05/03 00:43:21;;;;;;;5.60;2.53;;;;;;;;;;2097060;28;20409;-48
2022/05/03 00:45:49;;;;;;;5.82;2.88;;;;;;;;;;2091681;28;20477;-46
2022/05/03 00:46:50;;;;;;;3.50;2.30;;;;;;;;;;2097004;28;20044;-48
2022/05/03 00:47:53;;;;;;;5.00;2.78;;;;;;;;;;2097343;28;20123;-58
2022/05/03 00:49:04;;;;;;;5.15;2.90;;;;;;;;;;2096837;28;20378;-58
2022/05/03 00:50:06;;;;;;;3.75;2.47;;;;;;;;;;2096992;28;20608;-58
2022/05/03 00:51:12;;;;;;;3.88;2.72;;;;;;;;;;2096957;28;20044;-58
2022/05/03 00:52:17;;;;;;;4.40;2.47;;;;;;;;;;2097186;28;20126;-59
2022/05/03 00:53:19;;;;;;;5.15;2.50;;;;;;;;;;2097065;28;20209;-58
2022/05/03 00:54:20;;;;;;;;;;;;;;;;;;2097676;28;20127;-58
2022/05/03 00:55:28;;;;;;;5.97;2.67;;;;;;;;;;2096948;28;19920;-59
2022/05/03 00:56:34;;;;;;;3.08;2.13;;;;;;;;;;2097113;28;20131;-58
2022/05/03 00:57:41;;;;;;;5.00;2.42;;;;;;;;;;2097039;28;20054;-59
2022/05/03 00:59:00;;;;;;;4.93;2.78;;;;;;;;;;2096847;28;20440;-58
2022/05/03 01:00:06;;;;;;;2.88;2.15;;;;;;;;;;2099163;28;20048;-58
2022/05/03 01:01:11;;;;;;;3.78;2.22;;;;;;;;;;2106860;28;20051;-59
2022/05/03 01:02:13;;;;;;;4.68;2.53;;;;;;;;;;2106800;28;20040;-58
2022/05/03 01:03:18;;;;;;;4.18;2.58;;;;;;;;;;2106917;28;20048;-58
2022/05/03 01:04:20;;;;;;;7.47;2.90;;;;;;;;;;2106650;28;20048;-59
2022/05/03 01:05:26;;;;;;;4.20;2.40;;;;;;;;;;2106857;28;20077;-58
2022/05/03 01:06:33;;;;;;;5.47;2.80;;;;;;;;;;2106745;28;20492;-58
2022/05/03 01:07:34;;;;;;;5.55;2.60;;;;;;;;;;2106882;28;20079;-60
2022/05/03 01:08:37;;;;;;;3.30;2.17;;;;;;;;;;2106750;28;20503;-58
2022/05/03 01:09:39;;;;;;;5.50;2.63;;;;;;;;;;2106749;28;20048;-58
2022/05/03 01:10:46;;;;;;;4.25;2.47;;;;;;;;;;2106631;28;20568;-58
2022/05/03 01:11:53;;;;;;;4.38;2.78;;;;;;;;;;2107075;28;20127;-47
2022/05/03 01:13:00;;;;;;;4.55;2.70;;;;;;;;;;2106822;28;20128;-47
2022/05/03 01:14:06;;;;;;;4.80;2.47;;;;;;;;;;2106668;28;20078;-48
2022/05/03 01:15:08;;;;;;;4.50;2.45;;;;;;;;;;2106758;28;20489;-48
2022/05/03 01:16:16;;;;;;;3.78;2.30;;;;;;;;;;2106709;28;20131;-49
2022/05/03 01:17:21;;;;;;;6.05;2.80;;;;;;;;;;2106813;28;20170;-47
2022/05/03 01:18:26;;;;;;;5.00;2.33;;;;;;;;;;2106080;28;20044;-49
2022/05/03 01:19:34;;;;;;;2.92;2.00;;;;;;;;;;2098302;28;20123;-49
2022/05/03 01:20:50;;;;;;;4.18;2.65;;;;;;;;;;2098241;28;20504;-48
2022/05/03 01:22:00;;;;;;;3.72;2.47;;;;;;;;;;2098355;28;20124;-46
2022/05/03 01:23:15;;;;;;;4.97;2.65;;;;;;;;;;2098412;28;20128;-47
2022/05/03 01:24:26;;;;;;;5.18;2.28;;;;;;;;;;2098188;28;20496;-47
2022/05/03 01:25:43;;;;;;;3.55;2.47;;;;;;;;;;2098380;28;20143;-49
2022/05/03 01:27:14;;;;;;;3.83;2.72;;;;;;;;;;2098382;28;20127;-46
2022/05/03 01:28:21;;;;;;;4.53;2.63;;;;;;;;;;2098278;28;20117;-46
2022/05/03 01:29:32;;;;;;;3.70;2.30;;;;;;;;;;2098043;28;20401;-47
2022/05/03 01:30:34;;;;;;;4.68;2.50;;;;;;;;;;2098418;28;20102;-47
2022/05/03 01:31:35;;;;;;;4.60;2.58;;;;;;;;;;2098265;28;20131;-46
2022/05/03 01:32:36;;;;;;;4.18;2.50;;;;;;;;;;2098295;28;20083;-47
2022/05/03 01:33:38;;;;;;;3.47;2.65;;;;;;;;;;2098156;28;20565;-48
2022/05/03 01:34:40;;;;;;;5.18;2.97;;;;;;;;;;2098305;28;20139;-47
2022/05/03 01:35:42;;;;;;;;;;;;;;;;;;2098830;28;20049;-49
2022/05/03 01:36:46;;;;;;;5.25;2.60;;;;;;;;;;2098206;28;20403;-47
2022/05/03 01:38:11;;;;;;;3.13;2.40;;;;;;;;;;2098185;28;20135;-46
2022/05/03 01:39:14;;;;;;;6.32;2.78;;;;;;;;;;2098177;28;20539;-47
2022/05/03 01:40:20;;;;;;;4.70;2.70;;;;;;;;;;2098315;28;20132;-47
2022/05/03 01:41:27;;;;;;;4.22;2.50;;;;;;;;;;2098196;28;20387;-47
2022/05/03 01:42:29;;;;;;;4.22;2.47;;;;;;;;;;2098290;28;20578;-47
2022/05/03 01:43:44;;;;;;;3.95;2.58;;;;;;;;;;2098176;28;20119;-46
2022/05/03 01:44:50;;;;;;;5.53;2.67;;;;;;;;;;2098233;28;20129;-46
2022/05/03 01:45:58;;;;;;;4.30;2.35;;;;;;;;;;2098326;28;20043;-47
2022/05/03 01:47:04;;;;;;;3.40;2.55;;;;;;;;;;2098103;28;20434;-47
2022/05/03 01:48:22;;;;;;;3.90;2.40;;;;;;;;;;2098320;28;20051;-47
2022/05/03 01:50:53;;;;;;;6.28;3.00;;;;;;;;;;2098137;28;20448;-46
2022/05/03 01:52:15;;;;;;;6.38;2.38;;;;;;;;;;2098178;28;20139;-47
2022/05/03 01:53:18;;;;;;;4.07;2.70;;;;;;;;;;2094518;28;20521;-48
2022/05/03 01:54:32;;;;;;;3.95;2.35;;;;;;;;;;2097947;28;20098;-47
2022/05/03 01:55:48;;;;;;;5.55;2.80;;;;;;;;;;2098438;28;20049;-46
2022/05/03 01:56:56;;;;;;;4.13;2.45;;;;;;;;;;2086799;28;20066;-47
2022/05/03 01:58:04;;;;;;;3.20;2.33;;;;;;;;;;2103341;28;20444;-47
2022/05/03 01:59:15;;;;;;;4.40;2.55;;;;;;;;;;2106493;28;20131;-49
2022/05/03 02:00:20;;;;;;;4.65;2.70;;;;;;;;;;2106533;28;20131;-47
2022/05/03 02:01:26;;;;;;;3.85;2.70;;;;;;;;;;2106495;28;20139;-46
2022/05/03 02:02:36;;;;;;;4.05;2.42;;;;;;;;;;2106497;28;20048;-48
2022/05/03 02:03:44;;;;;;;5.13;3.05;;;;;;;;;;2106492;28;20079;-59
2022/05/03 02:04:56;;;;;;;6.32;2.97;;;;;;;;;;2106470;28;20131;-59
2022/05/03 02:06:00;;;;;;;5.28;2.80;;;;;;;;;;2106539;28;20119;-59
2022/05/03 02:07:04;;;;;;;4.32;2.67;;;;;;;;;;2106500;28;20050;-59
2022/05/03 02:08:10;;;;;;;3.90;2.63;;;;;;;;;;2106450;28;20185;-59
2022/05/03 02:09:11;;;;;;;6.65;3.17;;;;;;;;;;2106167;28;20205;-59
2022/05/03 02:10:17;;;;;;;4.30;2.50;;;;;;;;;;2106541;28;20052;-59
2022/05/03 02:11:27;;;;;;;3.67;2.40;;;;;;;;;;2106128;28;20483;-59
2022/05/03 02:12:28;;;;;;;4.55;3.10;;;;;;;;;;2106390;28;20469;-59
2022/05/03 02:15:04;;;;;;;4.75;2.72;;;;;;;;;;2075468;28;20567;-59
2022/05/03 02:16:09;;;;;;;4.50;2.53;;;;;;;;;;2092680;28;20072;-59
2022/05/03 02:17:13;;;;;;;4.13;2.55;;;;;;;;;;2098032;28;20121;-59
2022/05/03 02:18:19;;;;;;;5.70;2.80;;;;;;;;;;2097905;28;20053;-60
2022/05/03 02:19:30;;;;;;;5.40;2.90;;;;;;;;;;2089690;28;20132;-59
2022/05/03 02:20:46;;;;;;;4.15;2.53;;;;;;;;;;2089610;28;20406;-59
2022/05/03 02:21:51;;;;;;;6.88;2.78;;;;;;;;;;2089609;28;20545;-59
2022/05/03 02:23:00;;;;;;;3.83;2.60;;;;;;;;;;2089532;28;20135;-59
2022/05/03 02:24:02;;;;;;;3.85;2.50;;;;;;;;;;2089491;28;20487;-58
2022/05/03 02:25:11;;;;;;;5.47;2.92;;;;;;;;;;2089534;28;20401;-59
2022/05/03 02:26:23;;;;;;;4.13;2.65;;;;;;;;;;2089528;28;20109;-59
2022/05/03 02:27:25;;;;;;;6.85;2.90;;;;;;;;;;2089697;28;20120;-59
2022/05/03 02:28:29;;;;;;;4.82;2.83;;;;;;;;;;2089739;28;20053;-59
2022/05/03 02:29:33;;;;;;;5.25;2.65;;;;;;;;;;2089466;28;20045;-59
2022/05/03 02:30:35;;;;;;;4.47;2.63;;;;;;;;;;2089728;28;20175;-59
2022/05/03 02:31:41;;;;;;;7.85;2.83;;;;;;;;;;2089681;28;20132;-59
2022/05/03 02:32:47;;;;;;;5.10;2.83;;;;;;;;;;2089726;28;20441;-59
2022/05/03 02:33:49;;;;;;;5.07;2.97;;;;;;;;;;2089669;28;20123;-47
2022/05/03 02:34:53;;;;;;;4.55;2.67;;;;;;;;;;2089446;28;20186;-46
2022/05/03 02:35:55;;;;;;;3.25;2.55;;;;;;;;;;2089498;28;20519;-47
2022/05/03 02:36:59;;;;;;;5.35;2.70;;;;;;;;;;2089743;28;20049;-47
2022/05/03 02:38:02;;;;;;;5.85;2.70;;;;;;;;;;2092090;28;20163;-47
2022/05/03 02:39:04;;;;;;;4.13;2.60;;;;;;;;;;2097655;28;20584;-48
2022/05/03 02:40:07;;;;;;;4.28;2.88;;;;;;;;;;2097789;28;20488;-48
2022/05/03 02:41:10;;;;;;;5.40;2.50;;;;;;;;;;2097529;28;20148;-47
2022/05/03 02:42:11;;;;;;;5.97;2.65;;;;;;;;;;2097997;28;20135;-48
2022/05/03 02:43:14;;;;;;;4.40;2.75;;;;;;;;;;2097841;28;20048;-48
2022/05/03 02:44:17;;;;;;;3.80;2.65;;;;;;;;;;2097827;28;20127;-47
2022/05/03 02:45:19;;;;;;;4.43;3.03;;;;;;;;;;2097700;28;20451;-47
2022/05/03 02:46:30;;;;;;;6.65;2.78;;;;;;;;;;2097835;28;20364;-46
2022/05/03 02:47:36;;;;;;;5.35;2.90;;;;;;;;;;2097774;28;20072;-46
2022/05/03 02:48:40;;;;;;;4.25;2.40;;;;;;;;;;2097700;28;20055;-48
2022/05/03 02:49:51;;;;;;;6.85;3.15;;;;;;;;;;2097520;28;20486;-47
2022/05/03 02:50:53;;;;;;;3.15;2.35;;;;;;;;;;2097883;28;20098;-46
2022/05/03 02:52:00;;;;;;;3.58;2.42;;;;;;;;;;2097797;28;20063;-48
2022/05/03 02:53:02;;;;;;;4.10;2.72;;;;;;;;;;2097596;28;20036;-48
2022/05/03 02:54:07;;;;;;;4.10;2.45;;;;;;;;;;2097837;28;20044;-49
2022/05/03 02:55:13;;;;;;;3.55;2.40;;;;;;;;;;2097657;28;20040;-47
2022/05/03 02:56:20;;;;;;;4.45;2.85;;;;;;;;;;2097739;28;20055;-48
2022/05/03 02:57:34;;;;;;;3.15;1.98;;;;;;;;;;2097641;28;20132;-47
2022/05/03 02:58:42;;;;;;;4.70;2.50;;;;;;;;;;2097698;28;20049;-46
2022/05/03 03:02:34;;;;;;;4.45;2.50;;;;;;;;;;2097881;28;20123;-47
2022/05/03 03:03:53;;;;;;;4.18;2.58;;;;;;;;;;2097577;28;20056;-48
2022/05/03 03:05:01;;;;;;;4.30;2.70;;;;;;;;;;2097474;28;20109;-59
2022/05/03 03:06:02;;;;;;;4.28;2.20;;;;;;;;;;2097627;28;20378;-59
2022/05/03 03:07:04;;;;;;;4.15;2.47;;;;;;;;;;2097750;28;20055;-58
2022/05/03 03:08:06;;;;;;;4.90;2.83;;;;;;;;;;2097680;28;20141;-59
2022/05/03 03:09:07;;;;;;;4.25;2.85;;;;;;;;;;2097489;28;20562;-59
2022/05/03 03:10:12;;;;;;;5.82;2.90;;;;;;;;;;2097632;28;20075;-59
2022/05/03 03:11:16;;;;;;;9.90;4.63;;;;;;;;;;2097619;28;20139;-59
2022/05/03 03:12:22;;;;;;;8.35;4.28;;;;;;;;;;2097620;28;20044;-59
2022/05/03 03:13:26;;;;;;;6.30;3.83;;;;;;;;;;2097588;28;20522;-59
2022/05/03 03:14:33;;;;;;;9.18;4.40;;;;;;;;;;2097565;28;20044;-59
2022/05/03 03:15:38;;;;;;;7.18;3.83;;;;;;;;;;2097595;28;20483;-59
2022/05/03 03:16:42;;;;;;;5.78;4.00;;;;;;;;;;2097570;28;20053;-59
2022/05/03 03:17:44;;;;;;;4.97;3.50;;;;;;;;;;2097637;28;20725;-59
2022/05/03 03:18:46;;;;;;;8.07;3.45;;;;;;;;;;2097280;28;20509;-59
2022/05/03 03:20:00;;;;;;;4.28;3.03;;;;;;;;;;2097427;28;20055;-59
2022/05/03 03:21:05;;;;;;;5.07;3.15;;;;;;;;;;2097641;28;20036;-59
2022/05/03 03:22:07;;;;;;;5.25;3.10;;;;;;;;;;2097483;28;20051;-59
2022/05/03 03:23:08;;;;;;;5.75;3.53;;;;;;;;;;2096845;28;20109;-59
2022/05/03 03:24:11;;;;;;;6.80;3.10;;;;;;;;;;2097381;28;20410;-59
2022/05/03 03:25:13;;;;;;;5.45;2.97;;;;;;;;;;2097576;28;20131;-59
2022/05/03 03:26:15;;;;;;;5.25;3.00;;;;;;;;;;2097420;28;20052;-59
2022/05/03 03:27:19;;;;;;;4.07;2.72;;;;;;;;;;2097488;28;20058;-59
2022/05/03 03:28:21;;;;;;;6.18;3.20;;;;;;;;;;2097519;28;20053;-58
2022/05/03 03:29:24;;;;;;;6.25;3.47;;;;;;;;;;2097213;28;20452;-59
2022/05/03 03:30:26;;;;;;;9.27;4.03;;;;;;;;;;2097502;28;20048;-59
2022/05/03 03:31:28;;;;;;;7.45;4.50;;;;;;;;;;2097389;28;20159;-59
2022/05/03 03:32:30;;;;;;;7.75;4.65;;;;;;;;;;2097400;28;20517;-59
2022/05/03 03:33:34;;;;;;;8.43;4.28;;;;;;;;;;2097492;28;20060;-59
2022/05/03 03:34:37;;;;;;;7.32;3.97;;;;;;;;;;2097605;28;20045;-59
2022/05/03 03:35:39;;;;;;;6.32;3.60;;;;;;;;;;2088961;28;20055;-59
2022/05/03 03:36:41;;;;;;;7.05;3.97;;;;;;;;;;2089121;28;20053;-59
2022/05/03 03:37:43;;;;;;;8.73;4.15;;;;;;;;;;2089058;28;20049;-59
2022/05/03 03:38:46;;;;;;;7.03;3.95;;;;;;;;;;2089042;28;20629;-59
2022/05/03 03:39:47;;;;;;;4.95;2.88;;;;;;;;;;2089046;28;20785;-59
2022/05/03 03:40:49;;;;;;;6.03;2.95;;;;;;;;;;2089073;28;20094;-59
2022/05/03 03:41:50;;;;;;;6.47;3.47;;;;;;;;;;2089181;28;20045;-59
2022/05/03 03:42:51;;;;;;;5.57;3.03;;;;;;;;;;2089048;28;20052;-59
2022/05/03 03:43:52;;;;;;;5.80;2.97;;;;;;;;;;2089153;28;20047;-59
2022/05/03 03:44:54;;;;;;;4.35;2.88;;;;;;;;;;2089223;28;20055;-59
2022/05/03 03:45:55;;;;;;;5.93;2.70;;;;;;;;;;2089102;28;20534;-58
2022/05/03 03:46:56;;;;;;;5.20;2.85;;;;;;;;;;2089312;28;20045;-59
2022/05/03 03:47:57;;;;;;;5.05;3.42;;;;;;;;;;2089279;28;20078;-59
2022/05/03 03:48:59;;;;;;;5.63;3.35;;;;;;;;;;2096299;28;20051;-59
2022/05/03 03:50:01;;;;;;;6.32;3.08;;;;;;;;;;2105749;28;20126;-59
2022/05/03 03:51:02;;;;;;;4.43;2.65;;;;;;;;;;2105592;28;20398;-59
2022/05/03 03:52:04;;;;;;;3.55;2.53;;;;;;;;;;2105764;28;20048;-59
2022/05/03 03:53:05;;;;;;;5.43;2.53;;;;;;;;;;2105723;28;20050;-59
2022/05/03 03:54:06;;;;;;;5.72;2.78;;;;;;;;;;2105686;28;20052;-59
2022/05/03 03:55:08;;;;;;;4.57;2.80;;;;;;;;;;2105778;28;20603;-59
2022/05/03 03:56:10;;;;;;;5.05;2.75;;;;;;;;;;2105622;28;20479;-59
2022/05/03 03:57:11;;;;;;;4.43;2.70;;;;;;;;;;2105632;28;20459;-60
2022/05/03 03:58:13;;;;;;;6.25;3.28;;;;;;;;;;2105683;28;20567;-59
2022/05/03 03:59:15;;;;;;;8.43;3.30;;;;;;;;;;2105694;28;20140;-59
2022/05/03 04:00:16;;;;;;;5.55;3.25;;;;;;;;;;2105615;28;20061;-60
2022/05/03 04:01:18;;;;;;;6.22;3.78;;;;;;;;;;2105736;28;20123;-59
2022/05/03 04:02:20;;;;;;;8.93;4.03;;;;;;;;;;2105541;28;20052;-59
2022/05/03 04:03:21;;;;;;;7.90;3.95;;;;;;;;;;2105715;28;20066;-60
2022/05/03 04:04:25;;;;;;;8.30;4.10;;;;;;;;;;2105563;28;20140;-59
2022/05/03 04:05:27;;;;;;;7.45;3.63;;;;;;;;;;2105524;28;20515;-59
2022/05/03 04:06:28;;;;;;;5.78;3.10;;;;;;;;;;2105673;28;20127;-59
2022/05/03 04:07:29;;;;;;;6.25;3.63;;;;;;;;;;2105601;28;20040;-59
2022/05/03 04:08:30;;;;;;;6.50;3.65;;;;;;;;;;2105473;28;20690;-59
2022/05/03 04:09:31;;;;;;;7.70;3.57;;;;;;;;;;2105541;28;20549;-59
2022/05/03 04:10:32;;;;;;;5.45;3.30;;;;;;;;;;2105596;28;20371;-59
2022/05/03 04:11:41;;;;;;;4.80;3.22;;;;;;;;;;2105600;28;20048;-59
2022/05/03 04:12:42;;;;;;;5.82;2.92;;;;;;;;;;2105736;28;20131;-59
2022/05/03 04:13:43;;;;;;;5.65;3.45;;;;;;;;;;2105514;28;20040;-59
2022/05/03 04:14:45;;;;;;;8.85;3.15;;;;;;;;;;2105887;28;20436;-59
2022/05/03 04:15:46;;;;;;;7.18;3.90;;;;;;;;;;2105558;28;20056;-59
2022/05/03 04:16:48;;;;;;;4.32;2.45;;;;;;;;;;2105724;28;20048;-59
2022/05/03 04:17:49;;;;;;;5.18;2.63;;;;;;;;;;2105428;28;20055;-59
2022/05/03 04:18:50;;;;;;;6.97;3.08;;;;;;;;;;2101135;28;20048;-59
2022/05/03 04:19:52;;;;;;;5.50;2.83;;;;;;;;;;2097231;28;20444;-59
2022/05/03 04:20:53;;;;;;;4.32;3.33;;;;;;;;;;2097237;28;20052;-59
2022/05/03 04:21:55;;;;;;;4.40;2.93;;;;;;;;;;2097169;28;20532;-59
2022/05/03 04:22:55;;;;;;;5.80;2.75;;;;;;;;;;2097309;28;20197;-59
2022/05/03 04:23:57;;;;;;;4.90;3.03;;;;;;;;;;2097155;28;20284;-59
2022/05/03 04:24:58;;;;;;;5.82;2.92;;;;;;;;;;2097131;28;20401;-59
2022/05/03 04:25:59;;;;;;;4.20;2.80;;;;;;;;;;2097609;28;20132;-47
2022/05/03 04:27:00;;;;;;;4.22;2.72;;;;;;;;;;2097216;28;20128;-47
2022/05/03 04:28:02;;;;;;;6.70;3.20;;;;;;;;;;2097197;28;20193;-46
2022/05/03 04:29:03;;;;;;;5.10;2.22;;;;;;;;;;2097195;28;20377;-49
2022/05/03 04:30:05;;;;;;;7.68;2.90;;;;;;;;;;2096854;28;20489;-47
2022/05/03 04:31:06;;;;;;;5.88;2.60;;;;;;;;;;2097078;28;20048;-47
2022/05/03 04:32:07;;;;;;;3.58;2.60;;;;;;;;;;2097146;28;20052;-47
2022/05/03 04:33:08;;;;;;;4.57;2.53;;;;;;;;;;2097218;28;20525;-47
2022/05/03 04:34:10;;;;;;;6.72;2.95;;;;;;;;;;2097515;28;20048;-47
2022/05/03 04:35:11;;;;;;;8.63;2.63;;;;;;;;;;2098539;28;20048;-47
2022/05/03 04:36:12;;;;;;;;;;;;;;;;;;2098997;28;20131;-46
2022/05/03 04:37:13;;;;;;;4.20;2.03;;;;;;;;;;2098745;28;20296;-48
2022/05/03 04:38:14;;;;;;;3.95;2.40;;;;;;;;;;2098551;28;20123;-47
2022/05/03 04:39:15;;;;;;;3.37;2.03;;;;;;;;;;2098586;28;20406;-46
2022/05/03 04:40:17;;;;;;;5.05;2.63;;;;;;;;;;2098492;28;20451;-47
2022/05/03 04:41:19;;;;;;;3.53;1.98;;;;;;;;;;2098493;28;20076;-46
2022/05/03 04:42:20;;;;;;;6.03;2.80;;;;;;;;;;2098494;28;20048;-47
2022/05/03 04:43:21;;;;;;;2.97;2.25;;;;;;;;;;2098572;28;20128;-47
2022/05/03 04:44:22;;;;;;;3.63;2.77;;;;;;;;;;2098480;28;20482;-46
2022/05/03 04:45:23;;;;;;;8.32;4.35;;;;;;;;;;2098271;28;20365;-46
2022/05/03 04:46:25;;;;;;;9.13;5.35;;;;;;;;;;2098600;28;20074;-46
2022/05/03 04:47:26;;;;;;;5.03;3.53;;;;;;;;;;2098601;28;20402;-47
2022/05/03 04:48:27;;;;;;;5.13;3.43;;;;;;;;;;2098594;28;20048;-46
2022/05/03 04:49:28;;;;;;;5.50;3.53;;;;;;;;;;2098537;28;20154;-46
2022/05/03 04:50:30;;;;;;;5.30;3.20;;;;;;;;;;2098524;28;20052;-46
2022/05/03 04:51:31;;;;;;;;;;;;;;;;;;2098846;28;20474;-46
2022/05/03 04:52:32;;;;;;;6.38;3.70;;;;;;;;;;2098543;28;19924;-47
2022/05/03 04:53:33;;;;;;;8.35;3.17;;;;;;;;;;2098305;28;20462;-47
2022/05/03 04:54:35;;;;;;;7.75;3.83;;;;;;;;;;2098538;28;20450;-46
2022/05/03 04:55:37;;;;;;;5.90;3.80;;;;;;;;;;2098577;28;20044;-47
2022/05/03 04:56:40;;;;;;;6.05;3.25;;;;;;;;;;2098362;28;20076;-46
2022/05/03 04:57:41;;;;;;;6.85;3.58;;;;;;;;;;2098437;28;20447;-46
2022/05/03 04:58:42;;;;;;;6.77;3.50;;;;;;;;;;2098338;28;20190;-46
2022/05/03 04:59:44;;;;;;;5.72;3.33;;;;;;;;;;2098739;28;20149;-47
2022/05/03 05:00:45;;;;;;;9.23;3.55;;;;;;;;;;2098426;28;20466;-47
2022/05/03 05:01:46;;;;;;;8.73;3.33;;;;;;;;;;2098458;28;20048;-47
2022/05/03 05:02:47;;;;;;;3.95;2.60;;;;;;;;;;2098390;28;20083;-49
2022/05/03 05:03:49;;;;;;;5.50;2.70;;;;;;;;;;2098392;28;20072;-47
2022/05/03 05:04:50;;;;;;;3.40;2.50;;;;;;;;;;2098345;28;20620;-47
2022/05/03 05:05:52;;;;;;;3.55;1.90;;;;;;;;;;2098367;28;20536;-47
2022/05/03 05:06:53;;;;;;;4.25;2.05;;;;;;;;;;2098536;28;20129;-49
2022/05/03 05:07:54;;;;;;;2.80;1.75;;;;;;;;;;2098529;28;20047;-49
2022/05/03 05:08:55;;;;;;;2.83;1.70;;;;;;;;;;2098520;28;20135;-49
2022/05/03 05:11:16;;;;;;;5.70;1.73;;;;;;;;;;2098462;28;20438;-47
2022/05/03 05:12:17;;;;;;;4.18;2.13;;;;;;;;;;2098381;28;20061;-47
2022/05/03 05:13:20;;;;;;;;;;;;;;;;;;2098896;28;20074;-46
2022/05/03 05:14:21;;;;;;;4.00;2.17;;;;;;;;;;2098176;28;20437;-47
2022/05/03 05:15:23;;;;;;;4.50;2.00;;;;;;;;;;2098672;28;20127;-47
2022/05/03 05:16:24;;;;;;;2.42;1.45;;;;;;;;;;2098270;28;20052;-47
2022/05/03 05:17:25;;;;;;;4.03;1.70;;;;;;;;;;2098446;28;20132;-47
2022/05/03 05:18:27;;;;;;;2.37;1.60;;;;;;;;;;2098578;28;20076;-59
2022/05/03 05:19:28;;;;;;;2.00;1.48;;;;;;;;;;2098272;28;20136;-47
2022/05/03 05:20:29;;;;;;;2.80;1.53;;;;;;;;;;2098347;28;20044;-47
2022/05/03 05:21:31;;;;;;;2.88;1.60;;;;;;;;;;2098453;28;20048;-48
2022/05/03 05:22:32;;;;;;;3.10;1.80;;;;;;;;;;2098414;28;20105;-47
2022/05/03 05:23:33;;;;;;;2.72;1.33;;;;;;;;;;2098175;28;20215;-46
2022/05/03 05:24:34;;;;;;;3.00;2.08;;;;;;;;;;2098180;28;20127;-49
2022/05/03 05:25:35;;;;;;;5.30;1.53;;;;;;;;;;2098243;28;20102;-50
2022/05/03 05:26:37;;;;;;;3.17;1.75;;;;;;;;;;2098161;28;20102;-49
2022/05/03 05:27:38;;;;;;;3.05;1.88;;;;;;;;;;2097550;28;20505;-47
2022/05/03 05:28:39;;;;;;;2.77;1.57;;;;;;;;;;2098262;28;20321;-48
2022/05/03 05:29:40;;;;;;;2.72;1.35;;;;;;;;;;2098085;28;20530;-48
2022/05/03 05:30:41;;;;;;;2.53;1.40;;;;;;;;;;2098323;28;20144;-46
2022/05/03 05:31:42;;;;;;;5.00;1.52;;;;;;;;;;2098278;28;20045;-48
2022/05/03 05:32:43;;;;;;;4.50;1.58;;;;;;;;;;2098233;28;20466;-49
2022/05/03 05:33:44;;;;;;;4.17;1.70;;;;;;;;;;2098298;28;20055;-46
2022/05/03 05:34:45;;;;;;;2.38;1.00;;;;;;;;;;2098234;28;20131;-47
2022/05/03 05:35:46;;;;;;;2.97;1.60;;;;;;;;;;2098332;28;20048;-48
2022/05/03 05:36:49;;;;;;;3.88;1.52;;;;;;;;;;2098480;28;20178;-47
2022/05/03 05:37:50;;;;;;;3.67;1.58;;;;;;;;;;2098137;28;20488;-47
2022/05/03 05:38:52;;;;;;;2.25;1.33;;;;;;;;;;2098139;28;20127;-46
2022/05/03 05:39:53;;;;;;;2.70;1.60;;;;;;;;;;2098159;28;20474;-60
2022/05/03 05:40:55;;;;;;;2.53;1.40;;;;;;;;;;2098244;28;20102;-60
2022/05/03 05:41:56;;;;;;;2.67;1.40;;;;;;;;;;2097908;28;20454;-60
2022/05/03 05:42:59;;;;;;;2.47;1.38;;;;;;;;;;2098371;28;20131;-48
2022/05/03 05:44:03;;;;;;;2.00;1.55;;;;;;;;;;2098158;28;20044;-47
2022/05/03 05:45:04;;;;;;;3.38;1.42;;;;;;;;;;2098206;28;20139;-47
2022/05/03 05:46:05;;;;;;;2.75;1.52;;;;;;;;;;2097508;28;20119;-47
2022/05/03 05:47:06;;;;;;;2.40;1.27;;;;;;;;;;2098172;28;20429;-48
2022/05/03 05:48:09;;;;;;;4.75;1.77;;;;;;;;;;2098118;28;20046;-47
2022/05/03 05:49:10;;;;;;;3.90;1.20;;;;;;;;;;2098195;28;20105;-48
2022/05/03 05:50:11;;;;;;;3.23;1.40;;;;;;;;;;2097399;28;20052;-49
2022/05/03 05:51:13;;;;;;;6.38;1.70;;;;;;;;;;2098200;28;20136;-46
2022/05/03 05:53:34;;;;;;;5.63;1.40;;;;;;;;;;2098076;28;20131;-47
2022/05/03 05:54:35;;;;;;;1.80;1.20;;;;;;;;;;2098170;28;20132;-48
2022/05/03 05:55:36;;;;;;;2.33;1.10;;;;;;;;;;2098152;28;20500;-47
2022/05/03 05:56:38;;;;;;;2.45;1.20;;;;;;;;;;2098035;28;20447;-48
2022/05/03 05:57:39;;;;;;;2.42;1.30;;;;;;;;;;2098129;28;20157;-48
2022/05/03 05:58:40;;;;;;;2.80;1.63;;;;;;;;;;2098141;28;20048;-48
2022/05/03 05:59:41;;;;;;;5.57;1.80;;;;;;;;;;2098011;28;20044;-48
2022/05/03 06:00:42;;;;;;;1.90;1.43;;;;;;;;;;2098209;28;20048;-49
2022/05/03 06:01:43;;;;;;;2.80;1.30;;;;;;;;;;2098064;28;20127;-49
2022/05/03 06:02:45;;;;;;;4.30;1.67;;;;;;;;;;2097986;28;20463;-49
2022/05/03 06:03:46;;;;;;;2.22;1.38;;;;;;;;;;2097917;28;20183;-45
2022/05/03 06:04:47;;;;;;;2.05;1.35;;;;;;;;;;2098142;28;20135;-48
2022/05/03 06:05:56;;;;;;;4.53;1.70;;;;;;;;;;2098062;28;20044;-47
2022/05/03 06:06:57;;;;;;;2.42;1.45;;;;;;;;;;2097934;28;20479;-47
2022/05/03 06:07:59;;;;;;;4.40;1.60;;;;;;;;;;2097930;28;20048;-47
2022/05/03 06:09:00;;;;;;;;;;;;;;;;;;2098363;28;20047;-49
2022/05/03 06:10:01;;;;;;;4.78;1.30;;;;;;;;;;2097796;28;19920;-49
2022/05/03 06:11:02;;;;;;;2.83;1.60;;;;;;;;;;2097935;28;20090;-49
2022/05/03 06:12:03;;;;;;;2.45;1.27;;;;;;;;;;2098424;28;20124;-60
2022/05/03 06:13:05;;;;;;;2.35;1.10;;;;;;;;;;2097877;28;20124;-60
2022/05/03 06:14:06;;;;;;;3.92;1.20;;;;;;;;;;2097973;28;20040;-60
2022/05/03 06:15:07;;;;;;;2.85;1.50;;;;;;;;;;2097883;28;20051;-60
2022/05/03 06:16:09;;;;;;;2.22;1.50;;;;;;;;;;2098181;28;20175;-49
2022/05/03 06:17:10;;;;;;;;;;;;;;;;;;2098350;28;20497;-49
2022/05/03 06:18:12;;;;;;;2.58;1.42;;;;;;;;;;2097869;28;19967;-49
2022/05/03 06:19:13;;;;;;;4.45;1.45;;;;;;;;;;2097668;28;20105;-46
2022/05/03 06:20:14;;;;;;;1.67;1.30;;;;;;;;;;2097885;28;20044;-47
2022/05/03 06:21:15;;;;;;;2.28;1.33;;;;;;;;;;2097924;28;20132;-47
2022/05/03 06:22:16;;;;;;;5.68;1.63;;;;;;;;;;2097854;28;20073;-47
2022/05/03 06:23:18;;;;;;;3.60;1.60;;;;;;;;;;2097904;28;20091;-47
2022/05/03 06:24:19;;;;;;;2.88;1.58;;;;;;;;;;2097736;28;20074;-47
2022/05/03 06:25:22;;;;;;;3.00;1.37;;;;;;;;;;2097850;28;20091;-47
2022/05/03 06:26:23;;;;;;;4.38;1.70;;;;;;;;;;2097774;28;20128;-47
2022/05/03 06:27:24;;;;;;;3.00;1.80;;;;;;;;;;2098006;28;20481;-49
2022/05/03 06:28:25;;;;;;;3.42;1.52;;;;;;;;;;2097931;28;20066;-48
2022/05/03 06:29:26;;;;;;;3.28;1.50;;;;;;;;;;2097918;28;20490;-48
2022/05/03 06:30:27;;;;;;;2.97;1.70;;;;;;;;;;2097786;28;20053;-48
2022/05/03 06:31:28;;;;;;;2.90;1.67;;;;;;;;;;2097923;28;20045;-47